sensor_id;sensor_type;location;lat;lon;timestamp;temperature;humidity
21061;DHT22;10689;50.836;3.266;2023-02-08T00:00:43;0.00;99.90
21061;DHT22;10689;50.836;3.266;2023-02-08T00:03:09;0.00;99.90
21061;DHT22;10689;50.836;3.266;2023-02-08T00:05:34;0.10;99.90
21061;DHT22;10689;50.836;3.266;2023-02-08T00:08:00;0.00;99.90
21061;DHT22;10689;50.836;3.266;2023-02-08T00:10:28;-0.20;99.90
21061;DHT22;10689;50.836;3.266;2023-02-08T00:12:54;-0.20;99.90
21061;DHT22;10689;50.836;3.266;2023-02-08T00:15:20;-0.10;99.90
21061;DHT22;10689;50.836;3.266;2023-02-08T00:17:46;-0.10;99.90
21061;DHT22;10689;50.836;3.266;2023-02-08T00:20:12;-0.20;99.90
21061;DHT22;10689;50.836;3.266;2023-02-08T00:22:38;-0.20;99.90
21061;DHT22;10689;50.836;3.266;2023-02-08T00:25:05;-0.20;99.90
21061;DHT22;10689;50.836;3.266;2023-02-08T00:27:30;-0.20;99.90
21061;DHT22;10689;50.836;3.266;2023-02-08T00:29:58;-0.10;99.90
21061;DHT22;10689;50.836;3.266;2023-02-08T00:32:24;-0.10;99.90
21061;DHT22;10689;50.836;3.266;2023-02-08T00:34:50;-0.10;99.90
21061;DHT22;10689;50.836;3.266;2023-02-08T00:37:18;-0.20;99.90
21061;DHT22;10689;50.836;3.266;2023-02-08T00:39:46;-0.20;99.90
21061;DHT22;10689;50.836;3.266;2023-02-08T00:42:11;-0.20;99.90
21061;DHT22;10689;50.836;3.266;2023-02-08T00:44:37;-0.30;99.90
21061;DHT22;10689;50.836;3.266;2023-02-08T00:47:05;-0.30;99.90
21061;DHT22;10689;50.836;3.266;2023-02-08T00:49:30;-0.30;99.90
21061;DHT22;10689;50.836;3.266;2023-02-08T00:51:59;-0.20;99.90
21061;DHT22;10689;50.836;3.266;2023-02-08T00:54:24;-0.20;99.90
21061;DHT22;10689;50.836;3.266;2023-02-08T00:56:50;-0.20;99.90
21061;DHT22;10689;50.836;3.266;2023-02-08T00:59:16;-0.30;99.90
21061;DHT22;10689;50.836;3.266;2023-02-08T01:01:44;-0.30;99.90
21061;DHT22;10689;50.836;3.266;2023-02-08T01:04:09;-0.30;99.90
21061;DHT22;10689;50.836;3.266;2023-02-08T01:06:35;-0.40;99.90
21061;DHT22;10689;50.836;3.266;2023-02-08T01:09:03;-0.30;99.90
21061;DHT22;10689;50.836;3.266;2023-02-08T01:11:29;-0.40;99.90
21061;DHT22;10689;50.836;3.266;2023-02-08T01:13:57;-0.50;99.90
21061;DHT22;10689;50.836;3.266;2023-02-08T01:16:27;-0.50;99.90
21061;DHT22;10689;50.836;3.266;2023-02-08T01:18:55;-0.50;99.90
21061;DHT22;10689;50.836;3.266;2023-02-08T01:21:23;-0.40;99.90
21061;DHT22;10689;50.836;3.266;2023-02-08T01:23:50;-0.40;99.90
21061;DHT22;10689;50.836;3.266;2023-02-08T01:26:19;-0.60;99.90
21061;DHT22;10689;50.836;3.266;2023-02-08T01:28:45;-0.50;99.90
21061;DHT22;10689;50.836;3.266;2023-02-08T01:31:16;-0.50;99.90
21061;DHT22;10689;50.836;3.266;2023-02-08T01:33:43;-0.50;99.90
21061;DHT22;10689;50.836;3.266;2023-02-08T01:36:09;-0.40;99.90
21061;DHT22;10689;50.836;3.266;2023-02-08T01:38:37;-0.50;99.90
21061;DHT22;10689;50.836;3.266;2023-02-08T01:41:07;-0.50;99.90
21061;DHT22;10689;50.836;3.266;2023-02-08T01:46:23;-0.60;99.90
21061;DHT22;10689;50.836;3.266;2023-02-08T01:48:49;-0.70;99.90
21061;DHT22;10689;50.836;3.266;2023-02-08T01:51:27;-0.70;99.90
21061;DHT22;10689;50.836;3.266;2023-02-08T01:53:56;-0.80;99.90
21061;DHT22;10689;50.836;3.266;2023-02-08T01:56:28;-0.80;99.90
21061;DHT22;10689;50.836;3.266;2023-02-08T01:58:58;-0.80;99.90
21061;DHT22;10689;50.836;3.266;2023-02-08T02:01:29;-0.80;99.90
21061;DHT22;10689;50.836;3.266;2023-02-08T02:03:58;-0.70;99.90
21061;DHT22;10689;50.836;3.266;2023-02-08T02:06:32;-0.60;99.90
21061;DHT22;10689;50.836;3.266;2023-02-08T02:09:19;-0.40;99.90
21061;DHT22;10689;50.836;3.266;2023-02-08T02:11:48;-0.60;99.90
21061;DHT22;10689;50.836;3.266;2023-02-08T02:14:14;-0.60;99.90
21061;DHT22;10689;50.836;3.266;2023-02-08T02:16:40;-0.60;99.90
21061;DHT22;10689;50.836;3.266;2023-02-08T02:19:18;-0.50;99.90
21061;DHT22;10689;50.836;3.266;2023-02-08T02:33:16;-0.70;99.90
21061;DHT22;10689;50.836;3.266;2023-02-08T02:35:51;-0.80;99.90
21061;DHT22;10689;50.836;3.266;2023-02-08T02:44:14;-0.70;99.90
21061;DHT22;10689;50.836;3.266;2023-02-08T02:46:56;-0.60;99.90
21061;DHT22;10689;50.836;3.266;2023-02-08T02:52:36;-0.30;99.90
21061;DHT22;10689;50.836;3.266;2023-02-08T02:55:10;-0.30;99.90
21061;DHT22;10689;50.836;3.266;2023-02-08T02:57:38;-0.20;99.90
21061;DHT22;10689;50.836;3.266;2023-02-08T03:00:10;-0.30;99.90
21061;DHT22;10689;50.836;3.266;2023-02-08T03:02:36;-0.40;99.90
21061;DHT22;10689;50.836;3.266;2023-02-08T03:05:05;-0.50;99.90
21061;DHT22;10689;50.836;3.266;2023-02-08T03:15:41;-0.70;99.90
21061;DHT22;10689;50.836;3.266;2023-02-08T03:21:19;-0.60;99.90
21061;DHT22;10689;50.836;3.266;2023-02-08T03:29:47;-0.80;99.90
21061;DHT22;10689;50.836;3.266;2023-02-08T03:38:22;-0.90;99.90
21061;DHT22;10689;50.836;3.266;2023-02-08T03:40:38;-0.90;99.90
21061;DHT22;10689;50.836;3.266;2023-02-08T03:43:19;-0.90;99.90
21061;DHT22;10689;50.836;3.266;2023-02-08T03:46:04;-1.00;99.90
21061;DHT22;10689;50.836;3.266;2023-02-08T03:48:37;-1.00;99.90
21061;DHT22;10689;50.836;3.266;2023-02-08T03:51:04;-1.00;99.90
21061;DHT22;10689;50.836;3.266;2023-02-08T03:53:31;-0.90;99.90
21061;DHT22;10689;50.836;3.266;2023-02-08T03:56:07;-1.00;99.90
21061;DHT22;10689;50.836;3.266;2023-02-08T03:58:42;-1.00;99.90
21061;DHT22;10689;50.836;3.266;2023-02-08T04:01:35;-1.10;99.90
21061;DHT22;10689;50.836;3.266;2023-02-08T04:04:02;-1.00;99.90
21061;DHT22;10689;50.836;3.266;2023-02-08T04:06:28;-0.90;99.90
21061;DHT22;10689;50.836;3.266;2023-02-08T04:08:54;-0.90;99.90
21061;DHT22;10689;50.836;3.266;2023-02-08T04:11:20;-0.90;99.90
21061;DHT22;10689;50.836;3.266;2023-02-08T04:13:46;-0.90;99.90
21061;DHT22;10689;50.836;3.266;2023-02-08T04:16:12;-0.90;99.90
21061;DHT22;10689;50.836;3.266;2023-02-08T04:18:38;-1.00;99.90
21061;DHT22;10689;50.836;3.266;2023-02-08T04:21:04;-1.00;99.90
21061;DHT22;10689;50.836;3.266;2023-02-08T04:23:32;-1.00;99.90
21061;DHT22;10689;50.836;3.266;2023-02-08T04:25:58;-0.90;99.90
21061;DHT22;10689;50.836;3.266;2023-02-08T04:28:28;-1.00;99.90
21061;DHT22;10689;50.836;3.266;2023-02-08T04:30:56;-1.10;99.90
21061;DHT22;10689;50.836;3.266;2023-02-08T04:33:22;-1.10;99.90
21061;DHT22;10689;50.836;3.266;2023-02-08T04:35:47;-1.10;99.90
21061;DHT22;10689;50.836;3.266;2023-02-08T04:38:13;-1.20;99.90
21061;DHT22;10689;50.836;3.266;2023-02-08T04:40:39;-1.20;99.90
21061;DHT22;10689;50.836;3.266;2023-02-08T04:43:07;-1.30;99.90
21061;DHT22;10689;50.836;3.266;2023-02-08T04:45:35;-1.20;99.90
21061;DHT22;10689;50.836;3.266;2023-02-08T04:48:03;-1.30;99.90
21061;DHT22;10689;50.836;3.266;2023-02-08T04:50:32;-1.40;99.90
21061;DHT22;10689;50.836;3.266;2023-02-08T04:52:58;-1.30;99.90
21061;DHT22;10689;50.836;3.266;2023-02-08T04:55:23;-1.30;99.90
21061;DHT22;10689;50.836;3.266;2023-02-08T04:57:49;-1.30;99.90
21061;DHT22;10689;50.836;3.266;2023-02-08T05:00:15;-1.30;99.90
21061;DHT22;10689;50.836;3.266;2023-02-08T05:02:44;-1.40;99.90
21061;DHT22;10689;50.836;3.266;2023-02-08T05:05:09;-1.40;99.90
21061;DHT22;10689;50.836;3.266;2023-02-08T05:07:35;-1.40;99.90
21061;DHT22;10689;50.836;3.266;2023-02-08T05:10:02;-1.40;99.90
21061;DHT22;10689;50.836;3.266;2023-02-08T05:12:28;-1.30;99.90
21061;DHT22;10689;50.836;3.266;2023-02-08T05:14:54;-1.30;99.90
21061;DHT22;10689;50.836;3.266;2023-02-08T05:17:20;-1.40;99.90
21061;DHT22;10689;50.836;3.266;2023-02-08T05:19:46;-1.30;99.90
21061;DHT22;10689;50.836;3.266;2023-02-08T05:22:11;-1.30;99.90
21061;DHT22;10689;50.836;3.266;2023-02-08T05:24:37;-1.20;99.90
21061;DHT22;10689;50.836;3.266;2023-02-08T05:27:02;-1.40;99.90
21061;DHT22;10689;50.836;3.266;2023-02-08T05:29:31;-1.40;99.90
21061;DHT22;10689;50.836;3.266;2023-02-08T05:31:56;-1.30;99.90
21061;DHT22;10689;50.836;3.266;2023-02-08T05:34:22;-1.20;99.90
21061;DHT22;10689;50.836;3.266;2023-02-08T05:36:47;-1.20;99.90
21061;DHT22;10689;50.836;3.266;2023-02-08T05:39:13;-1.30;99.90
21061;DHT22;10689;50.836;3.266;2023-02-08T05:41:39;-1.40;99.90
21061;DHT22;10689;50.836;3.266;2023-02-08T05:44:04;-1.40;99.90
21061;DHT22;10689;50.836;3.266;2023-02-08T05:46:32;-1.40;99.90
21061;DHT22;10689;50.836;3.266;2023-02-08T05:48:58;-1.40;99.90
21061;DHT22;10689;50.836;3.266;2023-02-08T05:51:24;-1.40;99.90
21061;DHT22;10689;50.836;3.266;2023-02-08T05:53:49;-1.50;99.90
21061;DHT22;10689;50.836;3.266;2023-02-08T05:56:15;-1.40;99.90
21061;DHT22;10689;50.836;3.266;2023-02-08T05:58:43;-1.30;99.90
21061;DHT22;10689;50.836;3.266;2023-02-08T06:01:10;-1.20;99.90
21061;DHT22;10689;50.836;3.266;2023-02-08T06:03:36;-1.40;99.90
21061;DHT22;10689;50.836;3.266;2023-02-08T06:06:06;-1.50;99.90
21061;DHT22;10689;50.836;3.266;2023-02-08T06:08:32;-1.60;99.90
21061;DHT22;10689;50.836;3.266;2023-02-08T06:10:57;-1.60;99.90
21061;DHT22;10689;50.836;3.266;2023-02-08T06:13:23;-1.50;99.90
21061;DHT22;10689;50.836;3.266;2023-02-08T06:15:49;-1.60;99.90
21061;DHT22;10689;50.836;3.266;2023-02-08T06:18:14;-1.60;99.90
21061;DHT22;10689;50.836;3.266;2023-02-08T06:20:40;-1.70;99.90
21061;DHT22;10689;50.836;3.266;2023-02-08T06:23:08;-1.70;99.90
21061;DHT22;10689;50.836;3.266;2023-02-08T06:25:34;-1.70;99.90
21061;DHT22;10689;50.836;3.266;2023-02-08T06:28:00;-1.70;99.90
21061;DHT22;10689;50.836;3.266;2023-02-08T06:30:30;-1.80;99.90
21061;DHT22;10689;50.836;3.266;2023-02-08T06:32:58;-1.60;99.90
21061;DHT22;10689;50.836;3.266;2023-02-08T06:35:24;-1.60;99.90
21061;DHT22;10689;50.836;3.266;2023-02-08T06:37:50;-1.60;99.90
21061;DHT22;10689;50.836;3.266;2023-02-08T06:40:17;-1.60;99.90
21061;DHT22;10689;50.836;3.266;2023-02-08T06:42:43;-1.70;99.90
21061;DHT22;10689;50.836;3.266;2023-02-08T06:45:11;-1.80;99.90
21061;DHT22;10689;50.836;3.266;2023-02-08T06:47:37;-1.70;99.90
21061;DHT22;10689;50.836;3.266;2023-02-08T06:50:05;-1.60;99.90
21061;DHT22;10689;50.836;3.266;2023-02-08T06:52:31;-1.60;99.90
21061;DHT22;10689;50.836;3.266;2023-02-08T06:54:57;-1.60;99.90
21061;DHT22;10689;50.836;3.266;2023-02-08T06:57:22;-1.60;99.90
21061;DHT22;10689;50.836;3.266;2023-02-08T06:59:50;-1.70;99.90
21061;DHT22;10689;50.836;3.266;2023-02-08T07:02:20;-1.70;99.90
21061;DHT22;10689;50.836;3.266;2023-02-08T07:04:47;-1.70;99.90
21061;DHT22;10689;50.836;3.266;2023-02-08T07:07:14;-1.80;99.90
21061;DHT22;10689;50.836;3.266;2023-02-08T07:09:41;-1.80;99.90
21061;DHT22;10689;50.836;3.266;2023-02-08T07:12:07;-1.80;99.90
21061;DHT22;10689;50.836;3.266;2023-02-08T07:14:38;-1.70;99.90
21061;DHT22;10689;50.836;3.266;2023-02-08T07:17:04;-1.70;99.90
21061;DHT22;10689;50.836;3.266;2023-02-08T07:19:30;-1.70;99.90
21061;DHT22;10689;50.836;3.266;2023-02-08T07:21:59;-1.80;99.90
21061;DHT22;10689;50.836;3.266;2023-02-08T07:24:36;-1.80;99.90
21061;DHT22;10689;50.836;3.266;2023-02-08T07:27:06;-1.80;99.90
21061;DHT22;10689;50.836;3.266;2023-02-08T07:29:40;-1.70;99.90
21061;DHT22;10689;50.836;3.266;2023-02-08T07:32:09;-1.70;99.90
21061;DHT22;10689;50.836;3.266;2023-02-08T07:34:41;-1.60;99.90
21061;DHT22;10689;50.836;3.266;2023-02-08T07:37:10;-1.70;99.90
21061;DHT22;10689;50.836;3.266;2023-02-08T07:39:38;-1.60;99.90
21061;DHT22;10689;50.836;3.266;2023-02-08T07:42:04;-1.60;99.90
21061;DHT22;10689;50.836;3.266;2023-02-08T07:44:32;-1.60;99.90
21061;DHT22;10689;50.836;3.266;2023-02-08T07:47:04;-1.70;99.90
21061;DHT22;10689;50.836;3.266;2023-02-08T07:49:30;-1.60;99.90
21061;DHT22;10689;50.836;3.266;2023-02-08T07:51:57;-1.60;99.90
21061;DHT22;10689;50.836;3.266;2023-02-08T07:54:22;-1.50;99.90
21061;DHT22;10689;50.836;3.266;2023-02-08T07:56:48;-1.40;99.90
21061;DHT22;10689;50.836;3.266;2023-02-08T07:59:14;-1.40;99.90
21061;DHT22;10689;50.836;3.266;2023-02-08T08:01:40;-1.30;99.90
21061;DHT22;10689;50.836;3.266;2023-02-08T08:04:08;-1.30;99.90
21061;DHT22;10689;50.836;3.266;2023-02-08T08:06:37;-1.30;99.90
21061;DHT22;10689;50.836;3.266;2023-02-08T08:09:02;-1.30;99.90
21061;DHT22;10689;50.836;3.266;2023-02-08T08:11:31;-1.20;99.90
21061;DHT22;10689;50.836;3.266;2023-02-08T08:13:57;-1.20;99.90
21061;DHT22;10689;50.836;3.266;2023-02-08T08:16:23;-1.10;99.90
21061;DHT22;10689;50.836;3.266;2023-02-08T08:18:50;-1.20;99.90
21061;DHT22;10689;50.836;3.266;2023-02-08T08:21:19;-1.00;99.90
21061;DHT22;10689;50.836;3.266;2023-02-08T08:23:44;-0.70;99.90
21061;DHT22;10689;50.836;3.266;2023-02-08T08:26:18;-0.70;99.90
21061;DHT22;10689;50.836;3.266;2023-02-08T08:28:47;-0.70;99.90
21061;DHT22;10689;50.836;3.266;2023-02-08T08:31:16;-0.70;99.90
21061;DHT22;10689;50.836;3.266;2023-02-08T08:33:44;-0.50;99.90
21061;DHT22;10689;50.836;3.266;2023-02-08T08:36:10;-0.40;99.90
21061;DHT22;10689;50.836;3.266;2023-02-08T08:38:38;-0.20;99.90
21061;DHT22;10689;50.836;3.266;2023-02-08T08:41:10;-0.10;99.90
21061;DHT22;10689;50.836;3.266;2023-02-08T08:43:36;0.10;99.90
21061;DHT22;10689;50.836;3.266;2023-02-08T08:46:04;0.20;99.90
21061;DHT22;10689;50.836;3.266;2023-02-08T08:48:32;0.40;99.90
21061;DHT22;10689;50.836;3.266;2023-02-08T08:51:01;0.40;99.90
21061;DHT22;10689;50.836;3.266;2023-02-08T08:53:29;0.50;99.90
21061;DHT22;10689;50.836;3.266;2023-02-08T08:55:55;0.60;99.90
21061;DHT22;10689;50.836;3.266;2023-02-08T08:58:21;0.60;99.90
21061;DHT22;10689;50.836;3.266;2023-02-08T09:00:46;0.60;99.90
21061;DHT22;10689;50.836;3.266;2023-02-08T09:03:12;0.60;99.90
21061;DHT22;10689;50.836;3.266;2023-02-08T09:05:38;0.50;99.90
21061;DHT22;10689;50.836;3.266;2023-02-08T09:08:03;0.60;99.90
21061;DHT22;10689;50.836;3.266;2023-02-08T09:10:30;0.80;99.90
21061;DHT22;10689;50.836;3.266;2023-02-08T09:12:56;0.90;99.90
21061;DHT22;10689;50.836;3.266;2023-02-08T09:15:22;0.90;99.90
21061;DHT22;10689;50.836;3.266;2023-02-08T09:17:48;1.00;99.90
21061;DHT22;10689;50.836;3.266;2023-02-08T09:20:14;1.00;99.90
21061;DHT22;10689;50.836;3.266;2023-02-08T09:22:39;1.20;99.90
21061;DHT22;10689;50.836;3.266;2023-02-08T09:25:05;1.30;99.90
21061;DHT22;10689;50.836;3.266;2023-02-08T09:27:36;1.30;99.90
21061;DHT22;10689;50.836;3.266;2023-02-08T09:30:07;1.50;99.90
21061;DHT22;10689;50.836;3.266;2023-02-08T09:32:33;1.50;99.90
21061;DHT22;10689;50.836;3.266;2023-02-08T09:34:59;1.60;99.90
21061;DHT22;10689;50.836;3.266;2023-02-08T09:37:27;1.60;99.90
21061;DHT22;10689;50.836;3.266;2023-02-08T09:39:55;1.70;99.90
21061;DHT22;10689;50.836;3.266;2023-02-08T09:45:31;2.10;99.90
21061;DHT22;10689;50.836;3.266;2023-02-08T09:48:15;2.10;99.90
21061;DHT22;10689;50.836;3.266;2023-02-08T09:50:56;2.10;99.90
21061;DHT22;10689;50.836;3.266;2023-02-08T09:53:38;2.20;99.90
21061;DHT22;10689;50.836;3.266;2023-02-08T09:56:17;2.10;99.90
21061;DHT22;10689;50.836;3.266;2023-02-08T09:58:50;2.20;99.90
21061;DHT22;10689;50.836;3.266;2023-02-08T10:01:31;2.30;99.90
21061;DHT22;10689;50.836;3.266;2023-02-08T10:07:00;2.50;99.90
21061;DHT22;10689;50.836;3.266;2023-02-08T10:09:26;2.60;99.90
21061;DHT22;10689;50.836;3.266;2023-02-08T10:31:15;3.70;99.90
21061;DHT22;10689;50.836;3.266;2023-02-08T10:34:01;3.70;99.90
21061;DHT22;10689;50.836;3.266;2023-02-08T10:36:38;3.80;99.90
21061;DHT22;10689;50.836;3.266;2023-02-08T10:39:16;4.10;99.90
21061;DHT22;10689;50.836;3.266;2023-02-08T10:41:43;4.20;99.90
21061;DHT22;10689;50.836;3.266;2023-02-08T10:49:38;4.40;99.90
21061;DHT22;10689;50.836;3.266;2023-02-08T10:52:09;4.50;99.90
21061;DHT22;10689;50.836;3.266;2023-02-08T10:54:35;4.50;99.90
21061;DHT22;10689;50.836;3.266;2023-02-08T10:57:09;4.60;99.90
21061;DHT22;10689;50.836;3.266;2023-02-08T10:59:52;4.90;99.90
21061;DHT22;10689;50.836;3.266;2023-02-08T11:02:22;5.10;99.90
21061;DHT22;10689;50.836;3.266;2023-02-08T11:07:32;5.30;99.90
21061;DHT22;10689;50.836;3.266;2023-02-08T11:12:56;5.60;99.90
21061;DHT22;10689;50.836;3.266;2023-02-08T11:15:26;5.80;99.90
21061;DHT22;10689;50.836;3.266;2023-02-08T11:17:57;5.90;99.90
21061;DHT22;10689;50.836;3.266;2023-02-08T11:20:35;6.00;99.90
21061;DHT22;10689;50.836;3.266;2023-02-08T11:23:03;6.20;99.90
21061;DHT22;10689;50.836;3.266;2023-02-08T11:25:36;6.40;99.90
21061;DHT22;10689;50.836;3.266;2023-02-08T11:28:04;6.50;99.90
21061;DHT22;10689;50.836;3.266;2023-02-08T11:30:58;6.70;99.90
21061;DHT22;10689;50.836;3.266;2023-02-08T11:33:24;6.80;99.90
21061;DHT22;10689;50.836;3.266;2023-02-08T11:36:03;6.80;99.90
21061;DHT22;10689;50.836;3.266;2023-02-08T11:38:33;6.90;99.90
21061;DHT22;10689;50.836;3.266;2023-02-08T11:41:01;7.00;99.90
21061;DHT22;10689;50.836;3.266;2023-02-08T11:43:32;7.20;99.90
21061;DHT22;10689;50.836;3.266;2023-02-08T11:46:00;7.20;99.90
21061;DHT22;10689;50.836;3.266;2023-02-08T11:48:37;7.30;99.90
21061;DHT22;10689;50.836;3.266;2023-02-08T11:51:04;7.30;99.90
21061;DHT22;10689;50.836;3.266;2023-02-08T11:53:45;7.40;99.90
21061;DHT22;10689;50.836;3.266;2023-02-08T11:56:20;7.50;99.90
21061;DHT22;10689;50.836;3.266;2023-02-08T12:01:26;7.70;99.90
21061;DHT22;10689;50.836;3.266;2023-02-08T12:03:53;7.90;99.90
21061;DHT22;10689;50.836;3.266;2023-02-08T12:26:22;9.20;99.90
21061;DHT22;10689;50.836;3.266;2023-02-08T12:48:48;10.10;99.90
21061;DHT22;10689;50.836;3.266;2023-02-08T12:53:54;10.30;99.90
21061;DHT22;10689;50.836;3.266;2023-02-08T12:56:27;10.30;99.90
21061;DHT22;10689;50.836;3.266;2023-02-08T12:59:00;10.40;99.90
21061;DHT22;10689;50.836;3.266;2023-02-08T13:01:43;10.50;99.90
21061;DHT22;10689;50.836;3.266;2023-02-08T13:04:24;10.60;99.90
21061;DHT22;10689;50.836;3.266;2023-02-08T13:06:56;10.60;99.90
21061;DHT22;10689;50.836;3.266;2023-02-08T13:12:12;10.70;99.90
21061;DHT22;10689;50.836;3.266;2023-02-08T13:15:18;10.60;99.90
21061;DHT22;10689;50.836;3.266;2023-02-08T13:17:56;10.70;99.90
21061;DHT22;10689;50.836;3.266;2023-02-08T13:23:00;10.80;99.90
21061;DHT22;10689;50.836;3.266;2023-02-08T13:25:36;10.70;99.90
21061;DHT22;10689;50.836;3.266;2023-02-08T13:28:04;10.80;99.90
21061;DHT22;10689;50.836;3.266;2023-02-08T13:30:36;10.80;99.90
21061;DHT22;10689;50.836;3.266;2023-02-08T13:33:16;10.90;99.90
21061;DHT22;10689;50.836;3.266;2023-02-08T13:35:45;10.80;99.90
21061;DHT22;10689;50.836;3.266;2023-02-08T13:41:05;10.60;99.90
21061;DHT22;10689;50.836;3.266;2023-02-08T13:43:40;10.60;99.90
21061;DHT22;10689;50.836;3.266;2023-02-08T13:46:09;10.50;99.90
21061;DHT22;10689;50.836;3.266;2023-02-08T13:48:47;10.40;99.90
21061;DHT22;10689;50.836;3.266;2023-02-08T13:56:44;10.20;99.90
21061;DHT22;10689;50.836;3.266;2023-02-08T13:59:35;10.10;99.90
21061;DHT22;10689;50.836;3.266;2023-02-08T14:04:45;10.10;99.90
21061;DHT22;10689;50.836;3.266;2023-02-08T14:10:40;10.00;99.90
21061;DHT22;10689;50.836;3.266;2023-02-08T14:15:43;10.00;99.90
21061;DHT22;10689;50.836;3.266;2023-02-08T14:18:24;10.10;99.90
21061;DHT22;10689;50.836;3.266;2023-02-08T14:21:00;9.80;99.90
21061;DHT22;10689;50.836;3.266;2023-02-08T14:23:30;9.70;99.90
21061;DHT22;10689;50.836;3.266;2023-02-08T14:26:00;9.70;99.90
21061;DHT22;10689;50.836;3.266;2023-02-08T14:30:57;9.40;99.90
21061;DHT22;10689;50.836;3.266;2023-02-08T14:33:30;9.40;99.90
21061;DHT22;10689;50.836;3.266;2023-02-08T14:36:03;9.40;99.90
21061;DHT22;10689;50.836;3.266;2023-02-08T14:41:01;9.20;99.90
21061;DHT22;10689;50.836;3.266;2023-02-08T14:49:07;9.30;99.90
21061;DHT22;10689;50.836;3.266;2023-02-08T14:51:36;9.40;99.90
21061;DHT22;10689;50.836;3.266;2023-02-08T14:54:16;9.10;99.90
21061;DHT22;10689;50.836;3.266;2023-02-08T14:56:57;8.90;99.90
21061;DHT22;10689;50.836;3.266;2023-02-08T14:59:27;8.90;99.90
21061;DHT22;10689;50.836;3.266;2023-02-08T15:02:12;8.90;99.90
21061;DHT22;10689;50.836;3.266;2023-02-08T15:04:43;8.90;99.90
21061;DHT22;10689;50.836;3.266;2023-02-08T15:10:11;8.60;99.90
21061;DHT22;10689;50.836;3.266;2023-02-08T15:12:39;8.40;99.90
21061;DHT22;10689;50.836;3.266;2023-02-08T15:15:06;8.30;99.90
21061;DHT22;10689;50.836;3.266;2023-02-08T15:17:47;8.30;99.90
21061;DHT22;10689;50.836;3.266;2023-02-08T15:20:20;8.20;99.90
21061;DHT22;10689;50.836;3.266;2023-02-08T15:22:47;8.10;99.90
21061;DHT22;10689;50.836;3.266;2023-02-08T15:27:47;8.00;99.90
21061;DHT22;10689;50.836;3.266;2023-02-08T15:30:24;8.10;99.90
21061;DHT22;10689;50.836;3.266;2023-02-08T15:32:50;8.00;99.90
21061;DHT22;10689;50.836;3.266;2023-02-08T15:35:17;8.10;99.90
21061;DHT22;10689;50.836;3.266;2023-02-08T15:37:45;8.00;99.90
21061;DHT22;10689;50.836;3.266;2023-02-08T15:40:29;8.00;99.90
21061;DHT22;10689;50.836;3.266;2023-02-08T15:43:11;7.90;99.90
21061;DHT22;10689;50.836;3.266;2023-02-08T15:45:37;7.80;99.90
21061;DHT22;10689;50.836;3.266;2023-02-08T15:48:05;7.80;99.90
21061;DHT22;10689;50.836;3.266;2023-02-08T15:50:32;7.80;99.90
21061;DHT22;10689;50.836;3.266;2023-02-08T15:53:03;7.70;99.90
21061;DHT22;10689;50.836;3.266;2023-02-08T15:55:38;7.60;99.90
21061;DHT22;10689;50.836;3.266;2023-02-08T15:58:14;7.60;99.90
21061;DHT22;10689;50.836;3.266;2023-02-08T16:00:43;7.60;99.90
21061;DHT22;10689;50.836;3.266;2023-02-08T16:03:21;7.60;99.90
21061;DHT22;10689;50.836;3.266;2023-02-08T16:05:52;7.60;99.90
21061;DHT22;10689;50.836;3.266;2023-02-08T16:08:28;7.50;99.90
21061;DHT22;10689;50.836;3.266;2023-02-08T16:10:59;7.40;99.90
21061;DHT22;10689;50.836;3.266;2023-02-08T16:13:32;7.40;99.90
21061;DHT22;10689;50.836;3.266;2023-02-08T16:21:37;7.20;99.90
21061;DHT22;10689;50.836;3.266;2023-02-08T16:26:43;6.90;99.90
21061;DHT22;10689;50.836;3.266;2023-02-08T16:29:23;6.90;99.90
21061;DHT22;10689;50.836;3.266;2023-02-08T16:31:59;6.80;99.90
21061;DHT22;10689;50.836;3.266;2023-02-08T16:34:26;6.80;99.90
21061;DHT22;10689;50.836;3.266;2023-02-08T16:36:52;6.70;99.90
21061;DHT22;10689;50.836;3.266;2023-02-08T16:39:32;6.80;99.90
21061;DHT22;10689;50.836;3.266;2023-02-08T16:42:04;6.70;99.90
21061;DHT22;10689;50.836;3.266;2023-02-08T16:44:33;6.60;99.90
21061;DHT22;10689;50.836;3.266;2023-02-08T16:47:34;6.60;99.90
21061;DHT22;10689;50.836;3.266;2023-02-08T16:50:03;6.50;99.90
21061;DHT22;10689;50.836;3.266;2023-02-08T16:52:29;6.40;99.90
21061;DHT22;10689;50.836;3.266;2023-02-08T16:54:55;6.40;99.90
21061;DHT22;10689;50.836;3.266;2023-02-08T16:57:21;6.40;99.90
21061;DHT22;10689;50.836;3.266;2023-02-08T16:59:50;6.40;99.90
21061;DHT22;10689;50.836;3.266;2023-02-08T17:02:20;6.30;99.90
21061;DHT22;10689;50.836;3.266;2023-02-08T17:04:46;6.30;99.90
21061;DHT22;10689;50.836;3.266;2023-02-08T17:07:16;6.10;99.90
21061;DHT22;10689;50.836;3.266;2023-02-08T17:09:45;6.10;99.90
21061;DHT22;10689;50.836;3.266;2023-02-08T17:12:11;6.00;99.90
21061;DHT22;10689;50.836;3.266;2023-02-08T17:14:37;5.90;99.90
21061;DHT22;10689;50.836;3.266;2023-02-08T17:17:02;5.80;99.90
21061;DHT22;10689;50.836;3.266;2023-02-08T17:19:28;5.70;99.90
21061;DHT22;10689;50.836;3.266;2023-02-08T17:21:53;5.70;99.90
21061;DHT22;10689;50.836;3.266;2023-02-08T17:24:21;5.60;99.90
21061;DHT22;10689;50.836;3.266;2023-02-08T17:26:47;5.50;99.90
21061;DHT22;10689;50.836;3.266;2023-02-08T17:29:13;5.40;99.90
21061;DHT22;10689;50.836;3.266;2023-02-08T17:31:39;5.30;99.90
21061;DHT22;10689;50.836;3.266;2023-02-08T17:34:05;5.30;99.90
21061;DHT22;10689;50.836;3.266;2023-02-08T17:36:33;5.30;99.90
21061;DHT22;10689;50.836;3.266;2023-02-08T17:39:00;5.20;99.90
21061;DHT22;10689;50.836;3.266;2023-02-08T17:41:29;5.10;99.90
21061;DHT22;10689;50.836;3.266;2023-02-08T17:43:55;5.10;99.90
21061;DHT22;10689;50.836;3.266;2023-02-08T17:46:24;5.00;99.90
21061;DHT22;10689;50.836;3.266;2023-02-08T17:48:53;5.00;99.90
21061;DHT22;10689;50.836;3.266;2023-02-08T17:51:23;5.00;99.90
21061;DHT22;10689;50.836;3.266;2023-02-08T17:53:49;5.00;99.90
21061;DHT22;10689;50.836;3.266;2023-02-08T17:56:16;4.90;99.90
21061;DHT22;10689;50.836;3.266;2023-02-08T17:58:43;4.90;99.90
21061;DHT22;10689;50.836;3.266;2023-02-08T18:01:13;4.90;99.90
21061;DHT22;10689;50.836;3.266;2023-02-08T18:03:42;4.70;99.90
21061;DHT22;10689;50.836;3.266;2023-02-08T18:06:10;4.50;99.90
21061;DHT22;10689;50.836;3.266;2023-02-08T18:08:36;4.40;99.90
21061;DHT22;10689;50.836;3.266;2023-02-08T18:11:04;4.40;99.90
21061;DHT22;10689;50.836;3.266;2023-02-08T18:13:31;4.50;99.90
21061;DHT22;10689;50.836;3.266;2023-02-08T18:15:56;4.50;99.90
21061;DHT22;10689;50.836;3.266;2023-02-08T18:18:22;4.50;99.90
21061;DHT22;10689;50.836;3.266;2023-02-08T18:20:50;4.40;99.90
21061;DHT22;10689;50.836;3.266;2023-02-08T18:23:18;4.50;99.90
21061;DHT22;10689;50.836;3.266;2023-02-08T18:25:46;4.40;99.90
21061;DHT22;10689;50.836;3.266;2023-02-08T18:28:12;4.30;99.90
21061;DHT22;10689;50.836;3.266;2023-02-08T18:30:41;4.20;99.90
21061;DHT22;10689;50.836;3.266;2023-02-08T18:33:07;4.20;99.90
21061;DHT22;10689;50.836;3.266;2023-02-08T18:35:35;4.10;99.90
21061;DHT22;10689;50.836;3.266;2023-02-08T18:38:02;4.10;99.90
21061;DHT22;10689;50.836;3.266;2023-02-08T18:40:28;4.20;99.90
21061;DHT22;10689;50.836;3.266;2023-02-08T18:42:54;4.20;99.90
21061;DHT22;10689;50.836;3.266;2023-02-08T18:45:19;4.30;99.90